TimeEST,TemperatureF,Dew PointF,Humidity,Sea Level PressureIn,VisibilityMPH,Wind Direction,Wind SpeedMPH,Gust SpeedMPH,PrecipitationIn,Events,Conditions,WindDirDegrees,DateUTC
12:54 AM,52.0,48.0,86,29.60,10.0,WSW,17.3,26.5,N/A,,Overcast,240,2012-03-01 05:54:00
1:54 AM,51.1,46.0,83,29.60,10.0,WSW,17.3,21.9,N/A,,Overcast,240,2012-03-01 06:54:00
2:25 AM,50.0,44.6,82,29.57,10.0,WSW,16.1,23.0,N/A,,Scattered Clouds,240,2012-03-01 07:25:00
2:54 AM,50.0,42.8,76,29.55,10.0,WSW,11.5,19.6,N/A,,Mostly Cloudy,250,2012-03-01 07:54:00
3:54 AM,50.0,37.4,62,29.56,10.0,WSW,16.1,25.3,N/A,,Overcast,240,2012-03-01 08:54:00
4:54 AM,48.9,37.9,66,29.60,10.0,West,15.0,24.2,N/A,,Overcast,270,2012-03-01 09:54:00
5:54 AM,44.1,30.9,60,29.63,10.0,WSW,10.4,21.9,N/A,,Overcast,240,2012-03-01 10:54:00
6:54 AM,42.8,28.4,57,29.62,10.0,West,15.0,31.1,N/A,,Overcast,270,2012-03-01 11:54:00
7:54 AM,39.9,28.9,65,29.67,10.0,West,20.7,29.9,N/A,,Overcast,270,2012-03-01 12:54:00
8:54 AM,39.2,28.4,65,29.65,10.0,WSW,18.4,27.6,N/A,,Overcast,250,2012-03-01 13:54:00
9:54 AM,39.9,30.0,68,29.68,10.0,West,20.7,32.2,N/A,,Overcast,270,2012-03-01 14:54:00
10:54 AM,41.0,28.4,61,29.67,10.0,West,18.4,36.8,N/A,,Overcast,270,2012-03-01 15:54:00
11:54 AM,39.2,28.4,65,29.69,10.0,West,20.7,32.2,N/A,,Overcast,270,2012-03-01 16:54:00
12:54 PM,37.9,27.0,65,29.73,10.0,West,23.0,31.1,N/A,,Overcast,280,2012-03-01 17:54:00
1:19 PM,37.4,28.4,70,29.71,10.0,WNW,21.9,32.2,N/A,,Overcast,290,2012-03-01 18:19:00
1:54 PM,37.0,28.0,70,29.75,10.0,West,23.0,32.2,N/A,,Overcast,280,2012-03-01 18:54:00
2:54 PM,36.0,28.0,73,29.78,10.0,West,16.1,27.6,N/A,,Overcast,280,2012-03-01 19:54:00
3:54 PM,35.6,26.6,70,29.77,10.0,West,18.4,29.9,N/A,,Overcast,270,2012-03-01 20:54:00
4:54 PM,34.0,26.1,73,29.83,10.0,West,18.4,29.9,N/A,,Overcast,280,2012-03-01 21:54:00
5:54 PM,34.0,27.0,75,29.87,10.0,WNW,13.8,-,N/A,,Overcast,290,2012-03-01 22:54:00
6:54 PM,33.1,27.0,78,29.91,10.0,Variable,4.6,-,N/A,,Overcast,0,2012-03-01 23:54:00
7:54 PM,33.1,26.1,75,29.92,10.0,West,6.9,-,N/A,,Overcast,280,2012-03-02 00:54:00
8:54 PM,33.1,26.1,75,29.94,10.0,West,5.8,-,N/A,,Overcast,270,2012-03-02 01:54:00
9:54 PM,33.1,26.1,75,29.93,10.0,WNW,11.5,-,N/A,,Scattered Clouds,300,2012-03-02 02:54:00
10:54 PM,30.9,25.0,79,29.94,10.0,NW,6.9,-,N/A,,Clear,320,2012-03-02 03:54:00
11:54 PM,30.0,25.0,82,29.94,10.0,Calm,Calm,-,N/A,,Clear,0,2012-03-02 04:54:00